createdAt,value
2022-09-15T00:01:55.538Z,100392.88
2022-09-15T00:04:56.946Z,100390.16
2022-09-15T00:07:58.295Z,100391.84
2022-09-15T00:11:08.126Z,100397.84
2022-09-15T00:14:09.495Z,100389.47
2022-09-15T00:17:10.956Z,100391.94
2022-09-15T00:20:12.355Z,100393.63
2022-09-15T00:23:15.439Z,100378.03
2022-09-15T00:26:20.347Z,100375.06
2022-09-15T00:29:21.703Z,100381.53
2022-09-15T00:32:23.055Z,100374.81
2022-09-15T00:35:24.548Z,100382.47
2022-09-15T00:38:25.928Z,100376.78
2022-09-15T00:41:27.295Z,100372.56
2022-09-15T00:44:51.361Z,100369.34
2022-09-15T00:47:52.720Z,100372.44
2022-09-15T00:50:56.743Z,100375.25
2022-09-15T00:54:00.516Z,100371.13
2022-09-15T00:57:06.812Z,100376.53
2022-09-15T01:00:15.196Z,100373.94
2022-09-15T01:03:16.641Z,100368.97
2022-09-15T01:06:26.888Z,100371.69
2022-09-15T01:09:35.677Z,100373.06
2022-09-15T01:12:37.253Z,100373.31
2022-09-15T01:15:50.499Z,100373.41
2022-09-15T01:19:32.034Z,100372.69
2022-09-15T01:22:36.438Z,100369.97
2022-09-15T01:26:06.126Z,100376.09
2022-09-15T01:29:45.302Z,100370.22
2022-09-15T01:33:04.755Z,100372.69
2022-09-15T01:36:18.038Z,100374.25
2022-09-15T01:39:30.245Z,100379.94
2022-09-15T01:42:33.122Z,100371.91
2022-09-15T01:45:38.832Z,100372.84
2022-09-15T01:48:42.680Z,100377.00
2022-09-15T01:51:46.448Z,100362.22
2022-09-15T01:54:52.399Z,100358.94
2022-09-15T01:57:53.726Z,100371.28
2022-09-15T02:01:00.489Z,100365.19
2022-09-15T02:04:11.871Z,100366.84
2022-09-15T02:07:40.047Z,100361.53
2022-09-15T02:10:55.048Z,100370.25
2022-09-15T02:14:05.193Z,100363.91
2022-09-15T02:17:15.243Z,100370.75
2022-09-15T02:20:27.216Z,100384.66
2022-09-15T02:23:35.017Z,100391.28
2022-09-15T02:26:39.364Z,100381.50
2022-09-15T02:29:44.579Z,100388.13
2022-09-15T02:32:55.051Z,100387.28
2022-09-15T02:35:56.412Z,100394.97
2022-09-15T02:39:03.276Z,100395.69
2022-09-15T02:42:04.964Z,100388.84
2022-09-15T02:45:06.932Z,100382.09
2022-09-15T02:48:08.653Z,100377.25
2022-09-15T02:51:10.112Z,100384.44
2022-09-15T02:54:11.452Z,100393.50
2022-09-15T02:57:13.010Z,100393.84
2022-09-15T03:00:15.869Z,100393.09
2022-09-15T03:03:17.241Z,100391.56
2022-09-15T03:06:18.558Z,100397.13
2022-09-15T03:09:20.014Z,100400.69
2022-09-15T03:12:21.341Z,100396.19
2022-09-15T03:15:24.982Z,100396.59
2022-09-15T03:18:26.293Z,100403.88
2022-09-15T03:21:29.271Z,100400.34
2022-09-15T03:24:30.626Z,100410.13
2022-09-15T03:27:32.770Z,100414.72
2022-09-15T03:30:34.114Z,100408.69
2022-09-15T03:33:35.826Z,100402.78
2022-09-15T03:36:37.206Z,100405.69
2022-09-15T03:39:38.546Z,100404.06
2022-09-15T03:42:40.040Z,100405.22
2022-09-15T03:45:41.486Z,100404.59
2022-09-15T03:48:42.863Z,100401.41
2022-09-15T03:51:44.252Z,100398.81
2022-09-15T03:54:45.574Z,100398.81
2022-09-15T03:57:46.907Z,100393.81
2022-09-15T04:00:48.263Z,100402.66
2022-09-15T04:03:51.470Z,100409.72
2022-09-15T04:06:53.046Z,100403.09
2022-09-15T04:09:54.406Z,100396.13
2022-09-15T04:12:55.908Z,100401.31
2022-09-15T04:15:59.298Z,100390.03
2022-09-15T04:19:00.707Z,100378.72
2022-09-15T04:22:02.258Z,100384.72
2022-09-15T04:25:04.035Z,100383.91
2022-09-15T04:28:05.392Z,100387.66
2022-09-15T04:31:12.598Z,100382.47
2022-09-15T04:34:14.054Z,100384.31
2022-09-15T04:37:15.373Z,100381.03
2022-09-15T04:40:16.922Z,100379.38
2022-09-15T04:43:18.457Z,100381.97
2022-09-15T04:46:19.929Z,100375.22
2022-09-15T04:49:21.316Z,100375.84
2022-09-15T04:52:22.669Z,100375.09
2022-09-15T04:55:24.078Z,100373.47
2022-09-15T04:58:25.557Z,100374.53
2022-09-15T05:01:29.346Z,100371.19
2022-09-15T05:04:30.797Z,100375.56
2022-09-15T05:07:32.149Z,100369.63
2022-09-15T05:10:34.271Z,100368.94
2022-09-15T05:13:36.635Z,100367.16
2022-09-15T05:16:38.435Z,100371.41
2022-09-15T05:19:39.878Z,100365.31
2022-09-15T05:22:42.096Z,100373.66
2022-09-15T05:25:43.539Z,100366.75
2022-09-15T05:28:45.194Z,100368.41
2022-09-15T05:31:46.656Z,100376.06
2022-09-15T05:34:48.035Z,100373.47
2022-09-15T05:37:49.511Z,100379.72
2022-09-15T05:40:50.907Z,100372.50
2022-09-15T05:43:54.067Z,100377.41
2022-09-15T05:46:55.417Z,100370.66
2022-09-15T05:49:56.823Z,100373.47
2022-09-15T05:52:58.259Z,100383.44
2022-09-15T05:56:01.888Z,100376.94
2022-09-15T05:59:03.273Z,100377.97
2022-09-15T06:02:05.324Z,100377.53
2022-09-15T06:05:07.352Z,100384.72
2022-09-15T06:08:08.804Z,100387.81
2022-09-15T06:11:12.859Z,100381.72
2022-09-15T06:14:14.348Z,100387.59
2022-09-15T06:17:17.162Z,100389.06
2022-09-15T06:20:18.699Z,100385.78
2022-09-15T06:23:20.028Z,100399.25
2022-09-15T06:26:21.429Z,100401.91
2022-09-15T06:29:22.789Z,100402.47
2022-09-15T06:32:24.376Z,100399.75
2022-09-15T06:35:25.697Z,100406.53
2022-09-15T06:38:27.032Z,100401.25
2022-09-15T06:41:32.969Z,100405.50
2022-09-15T06:44:49.549Z,100405.97
2022-09-15T06:48:13.447Z,100399.72
2022-09-15T06:51:14.310Z,100396.66
2022-09-15T06:54:15.693Z,100397.81
2022-09-15T06:57:17.029Z,100399.38
2022-09-15T07:00:18.484Z,100399.16
2022-09-15T07:03:19.927Z,100400.47
2022-09-15T07:06:22.313Z,100405.53
2022-09-15T07:09:23.653Z,100421.06
2022-09-15T07:12:24.978Z,100424.31
2022-09-15T07:15:26.307Z,100437.88
2022-09-15T07:18:27.930Z,100430.06
2022-09-15T07:21:29.284Z,100428.38
2022-09-15T07:24:30.608Z,100420.13
2022-09-15T07:27:32.035Z,100424.25
2022-09-15T07:30:33.346Z,100435.25
2022-09-15T07:33:36.027Z,100428.91
2022-09-15T07:36:37.487Z,100437.78
2022-09-15T07:39:38.805Z,100430.25
2022-09-15T07:42:43.920Z,100434.81
2022-09-15T07:45:45.879Z,100434.13
2022-09-15T07:48:49.983Z,100433.22
2022-09-15T07:51:51.319Z,100418.53
2022-09-15T07:54:52.664Z,100415.81
2022-09-15T07:58:00.912Z,100425.56
2022-09-15T08:01:07.917Z,100427.00
2022-09-15T08:04:09.320Z,100434.75
2022-09-15T08:07:11.576Z,100437.66
2022-09-15T08:10:12.953Z,100442.00
2022-09-15T08:13:14.308Z,100433.47
2022-09-15T08:16:21.460Z,100442.28
2022-09-15T08:19:22.818Z,100439.94
2022-09-15T08:22:24.224Z,100440.47
2022-09-15T08:25:25.670Z,100447.50
2022-09-15T08:28:27.449Z,100444.34
2022-09-15T08:31:28.840Z,100449.19
2022-09-15T08:34:30.380Z,100437.94
2022-09-15T08:37:31.744Z,100443.84
2022-09-15T08:40:37.303Z,100448.19
2022-09-15T08:43:45.586Z,100456.94
2022-09-15T08:47:05.418Z,100456.66
2022-09-15T08:50:44.626Z,100444.09
2022-09-15T08:53:53.457Z,100440.00
2022-09-15T08:56:56.963Z,100442.44
2022-09-15T08:59:59.173Z,100439.47
2022-09-15T09:03:24.796Z,100442.78
2022-09-15T09:06:52.037Z,100448.63
2022-09-15T09:10:00.770Z,100456.00
2022-09-15T09:13:23.706Z,100456.13
2022-09-15T09:16:47.086Z,100451.69
2022-09-15T09:20:12.341Z,100460.84
2022-09-15T09:23:17.523Z,100465.25
2022-09-15T09:26:19.611Z,100457.66
2022-09-15T09:29:31.431Z,100468.69
2022-09-15T09:32:46.462Z,100484.94
2022-09-15T09:35:52.507Z,100470.88
2022-09-15T09:38:55.771Z,100477.38
2022-09-15T09:41:57.160Z,100472.22
2022-09-15T09:44:58.520Z,100472.38
2022-09-15T09:48:13.976Z,100474.63
2022-09-15T09:51:35.401Z,100464.38
2022-09-15T09:54:36.733Z,100461.94
2022-09-15T09:57:40.721Z,100462.09
2022-09-15T10:00:42.312Z,100459.91
2022-09-15T10:03:43.928Z,100460.78
2022-09-15T10:06:46.176Z,100459.88
2022-09-15T10:09:51.004Z,100462.91
2022-09-15T10:12:55.917Z,100459.47
2022-09-15T10:16:00.845Z,100456.84
2022-09-15T10:19:02.254Z,100469.75
2022-09-15T10:22:04.578Z,100462.00
2022-09-15T10:25:35.701Z,100464.69
2022-09-15T10:29:10.221Z,100466.47
2022-09-15T10:32:25.252Z,100457.63
2022-09-15T10:35:32.549Z,100465.31
2022-09-15T10:39:07.113Z,100456.94
2022-09-15T10:42:35.634Z,100451.91
2022-09-15T10:45:46.705Z,100449.16
2022-09-15T10:49:06.746Z,100449.88
2022-09-15T10:52:25.906Z,100459.41
2022-09-15T10:55:52.776Z,100449.97
2022-09-15T10:59:00.478Z,100463.31
2022-09-15T11:02:23.270Z,100479.84
2022-09-15T11:05:52.950Z,100481.84
2022-09-15T11:09:12.622Z,100490.06
2022-09-15T11:12:35.447Z,100489.28
2022-09-15T11:15:48.615Z,100492.50
2022-09-15T11:18:49.923Z,100489.31
2022-09-15T11:21:59.039Z,100488.75
2022-09-15T11:25:33.839Z,100483.69
2022-09-15T11:28:47.554Z,100474.88
2022-09-15T11:31:55.446Z,100474.09
2022-09-15T11:35:26.538Z,100470.69
2022-09-15T11:38:33.571Z,100478.75
2022-09-15T11:41:40.055Z,100482.69
2022-09-15T11:44:44.377Z,100475.97
2022-09-15T11:47:55.337Z,100477.97
2022-09-15T11:50:59.448Z,100484.41
2022-09-15T11:54:18.126Z,100489.78
2022-09-15T11:57:26.806Z,100484.56
2022-09-15T12:00:28.152Z,100489.28
2022-09-15T12:03:37.428Z,100495.50
2022-09-15T12:07:07.920Z,100489.84
2022-09-15T12:10:20.376Z,100495.75
2022-09-15T12:13:24.071Z,100480.09
2022-09-15T12:16:26.658Z,100482.69
2022-09-15T12:20:01.452Z,100483.66
2022-09-15T12:23:28.846Z,100485.59
2022-09-15T12:26:33.022Z,100480.44
2022-09-15T12:29:41.803Z,100484.25
2022-09-15T12:32:43.893Z,100489.75
2022-09-15T12:35:45.258Z,100485.03
2022-09-15T12:38:49.672Z,100485.03
2022-09-15T12:42:07.442Z,100477.38
2022-09-15T12:45:28.378Z,100470.78
2022-09-15T12:48:35.638Z,100484.41
2022-09-15T12:51:37.055Z,100492.31
2022-09-15T12:54:42.398Z,100488.00
2022-09-15T12:57:51.344Z,100491.84
2022-09-15T13:01:19.322Z,100505.66
2022-09-15T13:04:42.806Z,100531.25
2022-09-15T13:07:57.404Z,100544.78
2022-09-15T13:11:09.165Z,100550.69
2022-09-15T13:14:28.422Z,100557.03
2022-09-15T13:17:30.764Z,100559.72
2022-09-15T13:20:36.775Z,100554.44
2022-09-15T13:23:40.972Z,100534.63
2022-09-15T13:26:47.216Z,100529.63
2022-09-15T13:29:54.888Z,100516.59
2022-09-15T13:35:00.274Z,100521.88
2022-09-15T13:40:56.319Z,100508.25
2022-09-15T13:44:03.472Z,100506.84
2022-09-15T13:47:31.697Z,100497.03
2022-09-15T13:50:38.956Z,100505.41
2022-09-15T13:53:46.234Z,100499.97
2022-09-15T13:56:47.766Z,100490.75
2022-09-15T13:59:50.620Z,100490.03
2022-09-15T14:02:56.314Z,100488.09
2022-09-15T14:05:57.682Z,100488.47
2022-09-15T14:09:09.214Z,100487.50
2022-09-15T14:12:13.178Z,100486.56
2022-09-15T14:15:22.813Z,100489.19
2022-09-15T14:18:24.205Z,100492.47
2022-09-15T14:21:31.294Z,100487.97
2022-09-15T14:24:32.674Z,100490.31
2022-09-15T14:27:35.509Z,100495.53
2022-09-15T14:30:37.785Z,100496.34
2022-09-15T14:33:40.660Z,100500.44
2022-09-15T14:36:42.121Z,100498.91
2022-09-15T14:39:50.236Z,100501.78
2022-09-15T14:42:51.730Z,100510.28
2022-09-15T14:45:57.672Z,100506.38
2022-09-15T14:49:11.570Z,100500.16
2022-09-15T14:52:25.986Z,100500.25
2022-09-15T14:55:31.513Z,100513.34
2022-09-15T14:58:44.912Z,100522.78
2022-09-15T15:01:58.851Z,100533.25
2022-09-15T15:05:14.675Z,100533.66
2022-09-15T15:08:32.343Z,100541.28
2022-09-15T15:11:36.419Z,100530.84
2022-09-15T15:14:37.928Z,100526.69
2022-09-15T15:17:42.416Z,100524.94
2022-09-15T15:20:49.888Z,100525.75
2022-09-15T15:23:51.213Z,100519.00
2022-09-15T15:26:52.539Z,100525.19
2022-09-15T15:29:53.884Z,100525.28
2022-09-15T15:33:01.633Z,100528.50
2022-09-15T15:36:08.836Z,100520.53
2022-09-15T15:39:23.120Z,100523.53
2022-09-15T15:42:25.641Z,100519.25
2022-09-15T15:45:29.062Z,100520.66
2022-09-15T15:48:36.860Z,100524.31
2022-09-15T15:51:41.104Z,100514.41
2022-09-15T15:54:42.341Z,100529.16
2022-09-15T15:57:44.833Z,100521.34
2022-09-15T16:00:54.216Z,100524.44
2022-09-15T16:03:55.585Z,100522.09
2022-09-15T16:06:56.925Z,100528.34
2022-09-15T16:09:59.990Z,100526.34
2022-09-15T16:13:01.317Z,100517.22
2022-09-15T16:16:13.768Z,100523.97
2022-09-15T16:19:15.194Z,100522.66
2022-09-15T16:22:20.798Z,100522.91
2022-09-15T16:25:45.529Z,100514.50
2022-09-15T16:28:46.898Z,100519.69
2022-09-15T16:31:48.590Z,100517.34
2022-09-15T16:34:49.986Z,100508.81
2022-09-15T16:37:51.331Z,100518.38
2022-09-15T16:40:52.688Z,100523.84
2022-09-15T16:43:54.265Z,100516.53
2022-09-15T16:46:55.666Z,100518.75
2022-09-15T16:49:57.026Z,100523.22
2022-09-15T16:52:58.721Z,100521.13
2022-09-15T16:56:00.153Z,100522.53
2022-09-15T16:59:01.607Z,100532.00
2022-09-15T17:02:03.076Z,100534.34
2022-09-15T17:05:18.447Z,100537.28
2022-09-15T17:08:22.528Z,100529.97
2022-09-15T17:11:25.607Z,100528.78
2022-09-15T17:14:26.851Z,100536.91
2022-09-15T17:17:28.308Z,100533.53
2022-09-15T17:20:29.735Z,100533.03
2022-09-15T17:23:35.021Z,100526.41
2022-09-15T17:26:36.360Z,100529.66
2022-09-15T17:29:37.692Z,100522.31
2022-09-15T17:32:39.356Z,100526.66
2022-09-15T17:35:41.121Z,100532.53
2022-09-15T17:38:42.759Z,100534.00
2022-09-15T17:41:44.118Z,100523.13
2022-09-15T17:44:45.453Z,100530.63
2022-09-15T17:47:47.137Z,100538.13
2022-09-15T17:50:49.157Z,100536.06
2022-09-15T17:53:50.535Z,100537.22
2022-09-15T17:56:51.869Z,100540.13
2022-09-15T17:59:53.189Z,100533.06
2022-09-15T18:02:57.220Z,100540.31
2022-09-15T18:06:00.168Z,100544.72
2022-09-15T18:09:01.499Z,100537.78
2022-09-15T18:12:02.926Z,100542.25
2022-09-15T18:15:04.650Z,100529.81
2022-09-15T18:18:05.998Z,100537.19
2022-09-15T18:21:09.671Z,100541.84
2022-09-15T18:24:14.086Z,100534.47
2022-09-15T18:27:15.406Z,100542.47
2022-09-15T18:30:18.295Z,100542.06
2022-09-15T18:33:24.747Z,100543.41
2022-09-15T18:36:26.077Z,100540.81
2022-09-15T18:39:27.408Z,100538.13
2022-09-15T18:42:31.787Z,100538.13
2022-09-15T18:45:33.444Z,100540.50
2022-09-15T18:48:34.866Z,100535.09
2022-09-15T18:51:51.227Z,100536.56
2022-09-15T18:54:53.179Z,100540.28
2022-09-15T18:57:56.853Z,100556.56
2022-09-15T19:01:00.310Z,100588.06
2022-09-15T19:04:02.021Z,100584.25
2022-09-15T19:07:03.670Z,100577.63
2022-09-15T19:10:06.998Z,100574.50
2022-09-15T19:13:08.263Z,100574.50
2022-09-15T19:16:09.853Z,100589.53
2022-09-15T19:19:11.236Z,100578.84
2022-09-15T19:22:12.807Z,100582.06
2022-09-15T19:25:14.153Z,100575.00
2022-09-15T19:28:15.496Z,100572.53
2022-09-15T19:31:16.841Z,100604.84
2022-09-15T19:34:18.265Z,100609.50
2022-09-15T19:37:21.433Z,100600.53
2022-09-15T19:40:22.915Z,100601.19
2022-09-15T19:43:24.314Z,100590.19
2022-09-15T19:46:25.689Z,100593.09
2022-09-15T19:49:27.157Z,100595.13
2022-09-15T19:52:28.511Z,100601.63
2022-09-15T19:55:29.865Z,100598.03
2022-09-15T19:58:31.240Z,100600.38
2022-09-15T20:01:33.154Z,100595.69
2022-09-15T20:04:34.518Z,100598.84
2022-09-15T20:07:35.950Z,100598.28
2022-09-15T20:10:39.091Z,100604.56
2022-09-15T20:13:43.349Z,100602.47
2022-09-15T20:16:44.796Z,100602.09
2022-09-15T20:19:46.207Z,100599.06
2022-09-15T20:22:47.562Z,100607.91
2022-09-15T20:25:59.799Z,100605.44
2022-09-15T20:29:02.491Z,100607.34
2022-09-15T20:32:03.971Z,100607.06
2022-09-15T20:35:05.923Z,100612.25
2022-09-15T20:38:07.231Z,100608.84
2022-09-15T20:41:10.427Z,100601.81
2022-09-15T20:44:12.051Z,100607.16
2022-09-15T20:47:13.368Z,100610.84
2022-09-15T20:50:14.728Z,100608.47
2022-09-15T20:53:16.088Z,100604.88
2022-09-15T20:56:18.594Z,100602.09
2022-09-15T20:59:19.951Z,100597.41
2022-09-15T21:02:21.342Z,100601.47
2022-09-15T21:05:22.710Z,100631.38
2022-09-15T21:08:24.054Z,100639.78
2022-09-15T21:11:26.888Z,100629.66
2022-09-15T21:14:28.232Z,100627.59
2022-09-15T21:17:29.588Z,100630.66
2022-09-15T21:20:30.940Z,100626.78
2022-09-15T21:23:35.048Z,100624.34
2022-09-15T21:26:39.054Z,100621.56
2022-09-15T21:29:40.401Z,100611.97
2022-09-15T21:32:41.725Z,100614.91
2022-09-15T21:35:43.070Z,100609.00
2022-09-15T21:38:44.616Z,100612.50
2022-09-15T21:41:45.949Z,100608.34
2022-09-15T21:44:47.345Z,100606.00
2022-09-15T21:47:51.362Z,100605.91
2022-09-15T21:50:53.996Z,100609.44
2022-09-15T21:53:57.465Z,100608.75
2022-09-15T21:56:58.811Z,100608.75
2022-09-15T22:00:00.192Z,100610.63
2022-09-15T22:03:01.766Z,100604.13
2022-09-15T22:06:03.555Z,100612.06
2022-09-15T22:09:08.505Z,100613.53
2022-09-15T22:12:09.855Z,100622.88
2022-09-15T22:15:11.183Z,100650.28
2022-09-15T22:18:12.528Z,100645.38
2022-09-15T22:21:17.966Z,100629.47
2022-09-15T22:24:19.355Z,100632.06
2022-09-15T22:27:20.719Z,100617.59
2022-09-15T22:30:22.076Z,100619.91
2022-09-15T22:33:23.431Z,100626.13
2022-09-15T22:36:29.639Z,100621.38
2022-09-15T22:39:50.552Z,100620.97
2022-09-15T22:42:52.909Z,100618.81
2022-09-15T22:45:54.336Z,100615.59
2022-09-15T22:48:55.732Z,100616.69
2022-09-15T22:51:57.120Z,100618.69
2022-09-15T22:54:58.489Z,100608.38
2022-09-15T22:57:59.853Z,100611.84
2022-09-15T23:01:28.045Z,100607.72
2022-09-15T23:04:32.348Z,100604.28
2022-09-15T23:07:33.681Z,100612.88
2022-09-15T23:10:35.018Z,100612.72
2022-09-15T23:13:36.761Z,100624.44
2022-09-15T23:16:38.155Z,100641.53
2022-09-15T23:19:39.550Z,100628.06
2022-09-15T23:22:40.881Z,100622.16
2022-09-15T23:25:43.135Z,100621.34
2022-09-15T23:28:44.527Z,100619.78
2022-09-15T23:31:45.934Z,100622.69
2022-09-15T23:34:47.330Z,100621.28
2022-09-15T23:37:48.668Z,100621.63
2022-09-15T23:40:50.127Z,100610.81
2022-09-15T23:43:51.455Z,100608.56
2022-09-15T23:46:52.834Z,100613.25
2022-09-15T23:49:54.183Z,100605.66
2022-09-15T23:52:55.535Z,100609.22
2022-09-15T23:55:57.092Z,100614.56
2022-09-15T23:58:58.449Z,100606.34
